sensor_id;sensor_type;location;lat;lon;timestamp;pressure;altitude;pressure_sealevel;temperature;humidity
23446;BME280;11895;48.738;9.320;2023-04-09T00:01:10;99469.75;;;10.83;100.00
23446;BME280;11895;48.738;9.320;2023-04-09T00:03:38;99466.13;;;10.84;100.00
23446;BME280;11895;48.738;9.320;2023-04-09T00:06:06;99459.69;;;10.88;100.00
23446;BME280;11895;48.738;9.320;2023-04-09T00:08:34;99468.69;;;10.87;100.00
23446;BME280;11895;48.738;9.320;2023-04-09T00:11:02;99467.97;;;10.82;100.00
23446;BME280;11895;48.738;9.320;2023-04-09T00:13:29;99466.38;;;10.76;100.00
23446;BME280;11895;48.738;9.320;2023-04-09T00:16:07;99470.91;;;10.76;100.00
23446;BME280;11895;48.738;9.320;2023-04-09T00:18:35;99467.09;;;10.81;100.00
23446;BME280;11895;48.738;9.320;2023-04-09T00:21:02;99460.94;;;10.78;100.00
23446;BME280;11895;48.738;9.320;2023-04-09T00:23:30;99466.31;;;10.78;100.00
23446;BME280;11895;48.738;9.320;2023-04-09T00:25:57;99464.56;;;10.77;100.00
23446;BME280;11895;48.738;9.320;2023-04-09T00:28:26;99459.34;;;10.72;100.00
23446;BME280;11895;48.738;9.320;2023-04-09T00:30:53;99464.16;;;10.64;100.00
23446;BME280;11895;48.738;9.320;2023-04-09T00:33:20;99460.63;;;10.62;100.00
23446;BME280;11895;48.738;9.320;2023-04-09T00:35:48;99468.63;;;10.40;100.00
23446;BME280;11895;48.738;9.320;2023-04-09T00:38:15;99462.91;;;10.49;100.00
23446;BME280;11895;48.738;9.320;2023-04-09T00:40:43;99461.41;;;10.41;100.00
23446;BME280;11895;48.738;9.320;2023-04-09T00:43:10;99462.13;;;10.46;100.00
23446;BME280;11895;48.738;9.320;2023-04-09T00:45:37;99457.38;;;10.52;100.00
23446;BME280;11895;48.738;9.320;2023-04-09T00:48:15;99463.44;;;10.59;100.00
23446;BME280;11895;48.738;9.320;2023-04-09T00:50:44;99463.94;;;10.45;100.00
23446;BME280;11895;48.738;9.320;2023-04-09T00:53:11;99459.28;;;10.50;100.00
23446;BME280;11895;48.738;9.320;2023-04-09T00:55:44;99461.72;;;10.57;100.00
23446;BME280;11895;48.738;9.320;2023-04-09T00:58:13;99454.44;;;10.60;100.00
23446;BME280;11895;48.738;9.320;2023-04-09T01:00:40;99464.31;;;10.60;100.00
23446;BME280;11895;48.738;9.320;2023-04-09T01:03:07;99455.31;;;10.61;100.00
23446;BME280;11895;48.738;9.320;2023-04-09T01:08:53;99455.13;;;10.65;100.00
23446;BME280;11895;48.738;9.320;2023-04-09T01:14:54;99457.75;;;10.67;100.00
23446;BME280;11895;48.738;9.320;2023-04-09T01:17:34;99451.50;;;10.66;100.00
23446;BME280;11895;48.738;9.320;2023-04-09T01:20:16;99455.94;;;10.67;100.00
23446;BME280;11895;48.738;9.320;2023-04-09T01:26:10;99451.25;;;10.72;100.00
23446;BME280;11895;48.738;9.320;2023-04-09T01:28:55;99458.59;;;10.69;100.00
23446;BME280;11895;48.738;9.320;2023-04-09T01:31:29;99451.50;;;10.66;100.00
23446;BME280;11895;48.738;9.320;2023-04-09T01:33:59;99454.38;;;10.62;100.00
23446;BME280;11895;48.738;9.320;2023-04-09T01:36:28;99455.22;;;10.64;100.00
23446;BME280;11895;48.738;9.320;2023-04-09T01:39:00;99461.41;;;10.66;100.00
23446;BME280;11895;48.738;9.320;2023-04-09T01:41:31;99455.38;;;10.59;100.00
23446;BME280;11895;48.738;9.320;2023-04-09T01:44:02;99460.06;;;10.52;100.00
23446;BME280;11895;48.738;9.320;2023-04-09T01:46:30;99461.81;;;10.55;100.00
23446;BME280;11895;48.738;9.320;2023-04-09T01:49:00;99466.91;;;10.38;100.00
23446;BME280;11895;48.738;9.320;2023-04-09T01:51:29;99456.81;;;10.44;100.00
23446;BME280;11895;48.738;9.320;2023-04-09T01:53:59;99455.03;;;10.43;100.00
23446;BME280;11895;48.738;9.320;2023-04-09T01:56:27;99460.63;;;10.37;100.00
23446;BME280;11895;48.738;9.320;2023-04-09T01:58:54;99458.66;;;10.42;100.00
23446;BME280;11895;48.738;9.320;2023-04-09T02:01:29;99458.56;;;10.45;100.00
23446;BME280;11895;48.738;9.320;2023-04-09T02:04:02;99465.59;;;10.49;100.00
23446;BME280;11895;48.738;9.320;2023-04-09T02:06:50;99453.97;;;10.47;100.00
23446;BME280;11895;48.738;9.320;2023-04-09T02:09:26;99457.69;;;10.45;100.00
23446;BME280;11895;48.738;9.320;2023-04-09T02:12:03;99457.38;;;10.27;100.00
23446;BME280;11895;48.738;9.320;2023-04-09T02:14:33;99457.50;;;10.23;100.00
23446;BME280;11895;48.738;9.320;2023-04-09T02:17:02;99456.56;;;10.25;100.00
23446;BME280;11895;48.738;9.320;2023-04-09T02:19:43;99461.03;;;10.25;100.00
23446;BME280;11895;48.738;9.320;2023-04-09T02:22:14;99449.22;;;10.31;100.00
23446;BME280;11895;48.738;9.320;2023-04-09T02:24:44;99455.56;;;10.28;100.00
23446;BME280;11895;48.738;9.320;2023-04-09T02:27:12;99450.19;;;10.28;100.00
23446;BME280;11895;48.738;9.320;2023-04-09T02:29:41;99446.56;;;10.29;100.00
23446;BME280;11895;48.738;9.320;2023-04-09T02:32:09;99447.44;;;10.29;100.00
23446;BME280;11895;48.738;9.320;2023-04-09T02:34:37;99443.75;;;10.32;100.00
23446;BME280;11895;48.738;9.320;2023-04-09T02:37:05;99451.63;;;10.38;100.00
23446;BME280;11895;48.738;9.320;2023-04-09T02:39:32;99451.06;;;10.28;100.00
23446;BME280;11895;48.738;9.320;2023-04-09T02:42:00;99450.63;;;10.14;100.00
23446;BME280;11895;48.738;9.320;2023-04-09T02:44:28;99450.47;;;10.19;100.00
23446;BME280;11895;48.738;9.320;2023-04-09T02:46:56;99454.91;;;10.20;100.00
23446;BME280;11895;48.738;9.320;2023-04-09T02:49:24;99458.38;;;10.23;100.00
23446;BME280;11895;48.738;9.320;2023-04-09T02:51:52;99455.66;;;10.25;100.00
23446;BME280;11895;48.738;9.320;2023-04-09T02:54:19;99457.72;;;10.17;100.00
23446;BME280;11895;48.738;9.320;2023-04-09T02:56:47;99452.28;;;10.18;100.00
23446;BME280;11895;48.738;9.320;2023-04-09T02:59:15;99457.59;;;10.20;100.00
23446;BME280;11895;48.738;9.320;2023-04-09T03:01:42;99446.97;;;10.17;100.00
23446;BME280;11895;48.738;9.320;2023-04-09T03:04:10;99449.53;;;10.20;100.00
23446;BME280;11895;48.738;9.320;2023-04-09T03:06:38;99443.16;;;10.22;100.00
23446;BME280;11895;48.738;9.320;2023-04-09T03:09:06;99439.03;;;10.12;100.00
23446;BME280;11895;48.738;9.320;2023-04-09T03:11:33;99441.66;;;10.14;100.00
23446;BME280;11895;48.738;9.320;2023-04-09T03:14:01;99437.28;;;10.11;100.00
23446;BME280;11895;48.738;9.320;2023-04-09T03:16:28;99437.03;;;9.92;100.00
23446;BME280;11895;48.738;9.320;2023-04-09T03:18:56;99433.41;;;9.93;100.00
23446;BME280;11895;48.738;9.320;2023-04-09T03:21:24;99437.13;;;9.89;100.00
23446;BME280;11895;48.738;9.320;2023-04-09T03:23:53;99440.84;;;9.85;100.00
23446;BME280;11895;48.738;9.320;2023-04-09T03:26:21;99444.53;;;9.83;100.00
23446;BME280;11895;48.738;9.320;2023-04-09T03:28:49;99437.44;;;9.80;100.00
23446;BME280;11895;48.738;9.320;2023-04-09T03:31:17;99437.34;;;9.83;100.00
23446;BME280;11895;48.738;9.320;2023-04-09T03:33:46;99439.09;;;9.84;100.00
23446;BME280;11895;48.738;9.320;2023-04-09T03:36:14;99435.69;;;9.79;100.00
23446;BME280;11895;48.738;9.320;2023-04-09T03:38:53;99435.06;;;9.97;100.00
23446;BME280;11895;48.738;9.320;2023-04-09T03:41:27;99444.13;;;9.95;100.00
23446;BME280;11895;48.738;9.320;2023-04-09T03:43:57;99441.41;;;9.95;100.00
23446;BME280;11895;48.738;9.320;2023-04-09T03:46:30;99443.88;;;10.02;100.00
23446;BME280;11895;48.738;9.320;2023-04-09T03:48:59;99449.34;;;9.99;100.00
23446;BME280;11895;48.738;9.320;2023-04-09T03:51:36;99442.28;;;9.97;100.00
23446;BME280;11895;48.738;9.320;2023-04-09T03:54:04;99442.13;;;10.01;100.00
23446;BME280;11895;48.738;9.320;2023-04-09T03:56:33;99439.66;;;9.94;100.00
23446;BME280;11895;48.738;9.320;2023-04-09T03:59:03;99438.88;;;9.90;100.00
23446;BME280;11895;48.738;9.320;2023-04-09T04:01:40;99438.22;;;9.84;100.00
23446;BME280;11895;48.738;9.320;2023-04-09T04:04:09;99437.56;;;9.77;100.00
23446;BME280;11895;48.738;9.320;2023-04-09T04:06:52;99436.50;;;9.81;100.00
23446;BME280;11895;48.738;9.320;2023-04-09T04:09:36;99429.50;;;9.77;100.00
23446;BME280;11895;48.738;9.320;2023-04-09T04:12:10;99436.47;;;9.83;100.00
23446;BME280;11895;48.738;9.320;2023-04-09T04:14:52;99426.97;;;9.71;100.00
23446;BME280;11895;48.738;9.320;2023-04-09T04:17:27;99429.16;;;9.60;100.00
23446;BME280;11895;48.738;9.320;2023-04-09T04:19:55;99436.44;;;9.56;100.00
23446;BME280;11895;48.738;9.320;2023-04-09T04:22:24;99438.47;;;9.49;100.00
23446;BME280;11895;48.738;9.320;2023-04-09T04:24:57;99438.53;;;9.46;100.00
23446;BME280;11895;48.738;9.320;2023-04-09T04:27:25;99446.31;;;9.56;100.00
23446;BME280;11895;48.738;9.320;2023-04-09T04:29:53;99445.69;;;9.47;100.00
23446;BME280;11895;48.738;9.320;2023-04-09T04:32:35;99453.56;;;9.53;100.00
23446;BME280;11895;48.738;9.320;2023-04-09T04:35:07;99447.47;;;9.48;100.00
23446;BME280;11895;48.738;9.320;2023-04-09T04:37:37;99452.94;;;9.45;100.00
23446;BME280;11895;48.738;9.320;2023-04-09T04:40:06;99457.19;;;9.52;100.00
23446;BME280;11895;48.738;9.320;2023-04-09T04:42:39;99454.38;;;9.56;100.00
23446;BME280;11895;48.738;9.320;2023-04-09T04:45:11;99450.75;;;9.57;100.00
23446;BME280;11895;48.738;9.320;2023-04-09T04:47:59;99449.94;;;9.55;100.00
23446;BME280;11895;48.738;9.320;2023-04-09T04:50:27;99454.19;;;9.62;100.00
23446;BME280;11895;48.738;9.320;2023-04-09T04:53:02;99445.59;;;9.50;100.00
23446;BME280;11895;48.738;9.320;2023-04-09T04:55:36;99451.69;;;9.56;100.00
23446;BME280;11895;48.738;9.320;2023-04-09T04:58:14;99442.53;;;9.63;100.00
23446;BME280;11895;48.738;9.320;2023-04-09T05:00:53;99455.84;;;9.66;100.00
23446;BME280;11895;48.738;9.320;2023-04-09T05:03:20;99444.13;;;9.68;100.00
23446;BME280;11895;48.738;9.320;2023-04-09T05:06:06;99452.03;;;9.73;100.00
23446;BME280;11895;48.738;9.320;2023-04-09T05:08:41;99457.81;;;9.61;100.00
23446;BME280;11895;48.738;9.320;2023-04-09T05:11:11;99453.78;;;9.74;100.00
23446;BME280;11895;48.738;9.320;2023-04-09T05:13:41;99452.22;;;9.67;100.00
23446;BME280;11895;48.738;9.320;2023-04-09T05:16:16;99464.41;;;9.78;100.00
23446;BME280;11895;48.738;9.320;2023-04-09T05:19:15;99463.75;;;9.72;100.00
23446;BME280;11895;48.738;9.320;2023-04-09T05:21:43;99468.06;;;9.76;100.00
23446;BME280;11895;48.738;9.320;2023-04-09T05:24:18;99462.50;;;9.82;100.00
23446;BME280;11895;48.738;9.320;2023-04-09T05:26:45;99462.06;;;9.94;100.00
23446;BME280;11895;48.738;9.320;2023-04-09T05:29:13;99459.75;;;9.84;100.00
23446;BME280;11895;48.738;9.320;2023-04-09T05:31:43;99464.91;;;9.90;100.00
23446;BME280;11895;48.738;9.320;2023-04-09T05:34:21;99458.56;;;9.92;100.00
23446;BME280;11895;48.738;9.320;2023-04-09T05:36:53;99465.34;;;10.04;100.00
23446;BME280;11895;48.738;9.320;2023-04-09T05:39:22;99466.63;;;10.19;100.00
23446;BME280;11895;48.738;9.320;2023-04-09T05:41:51;99460.00;;;10.29;100.00
23446;BME280;11895;48.738;9.320;2023-04-09T05:44:21;99468.78;;;10.36;100.00
23446;BME280;11895;48.738;9.320;2023-04-09T05:46:51;99461.34;;;10.42;100.00
23446;BME280;11895;48.738;9.320;2023-04-09T05:49:23;99467.22;;;10.53;100.00
23446;BME280;11895;48.738;9.320;2023-04-09T05:51:53;99470.06;;;10.49;100.00
23446;BME280;11895;48.738;9.320;2023-04-09T05:54:25;99473.56;;;10.52;100.00
23446;BME280;11895;48.738;9.320;2023-04-09T05:56:53;99471.88;;;10.48;100.00
23446;BME280;11895;48.738;9.320;2023-04-09T05:59:21;99469.44;;;10.42;100.00
23446;BME280;11895;48.738;9.320;2023-04-09T06:01:49;99462.63;;;10.32;100.00
23446;BME280;11895;48.738;9.320;2023-04-09T06:04:17;99465.94;;;10.39;100.00
23446;BME280;11895;48.738;9.320;2023-04-09T06:07:03;99472.13;;;10.16;100.00
23446;BME280;11895;48.738;9.320;2023-04-09T06:09:30;99467.41;;;10.22;100.00
23446;BME280;11895;48.738;9.320;2023-04-09T06:11:58;99480.22;;;10.16;100.00
23446;BME280;11895;48.738;9.320;2023-04-09T06:14:25;99475.44;;;10.24;100.00
23446;BME280;11895;48.738;9.320;2023-04-09T06:16:53;99475.34;;;10.27;100.00
23446;BME280;11895;48.738;9.320;2023-04-09T06:19:22;99477.00;;;10.31;100.00
23446;BME280;11895;48.738;9.320;2023-04-09T06:21:50;99471.81;;;10.25;100.00
23446;BME280;11895;48.738;9.320;2023-04-09T06:24:17;99475.03;;;10.36;100.00
23446;BME280;11895;48.738;9.320;2023-04-09T06:26:45;99481.75;;;10.49;100.00
23446;BME280;11895;48.738;9.320;2023-04-09T06:29:13;99473.94;;;10.42;100.00
23446;BME280;11895;48.738;9.320;2023-04-09T06:31:41;99469.81;;;10.57;100.00
23446;BME280;11895;48.738;9.320;2023-04-09T06:34:09;99464.66;;;10.50;100.00
23446;BME280;11895;48.738;9.320;2023-04-09T06:36:43;99466.25;;;10.31;100.00
23446;BME280;11895;48.738;9.320;2023-04-09T06:39:11;99460.97;;;10.00;100.00
23446;BME280;11895;48.738;9.320;2023-04-09T06:41:39;99464.81;;;10.46;100.00
23446;BME280;11895;48.738;9.320;2023-04-09T06:44:22;99468.69;;;10.64;100.00
23446;BME280;11895;48.738;9.320;2023-04-09T06:46:51;99470.84;;;10.77;100.00
23446;BME280;11895;48.738;9.320;2023-04-09T06:49:18;99471.16;;;10.68;100.00
23446;BME280;11895;48.738;9.320;2023-04-09T06:51:46;99483.22;;;10.83;100.00
23446;BME280;11895;48.738;9.320;2023-04-09T06:54:13;99466.13;;;10.84;100.00
23446;BME280;11895;48.738;9.320;2023-04-09T06:56:41;99474.94;;;10.88;100.00
23446;BME280;11895;48.738;9.320;2023-04-09T06:59:09;99476.06;;;10.32;100.00
23446;BME280;11895;48.738;9.320;2023-04-09T07:01:37;99469.44;;;10.42;100.00
23446;BME280;11895;48.738;9.320;2023-04-09T07:04:05;99476.63;;;10.67;100.00
23446;BME280;11895;48.738;9.320;2023-04-09T07:06:33;99473.59;;;10.76;100.00
23446;BME280;11895;48.738;9.320;2023-04-09T07:09:01;99472.91;;;10.94;100.00
23446;BME280;11895;48.738;9.320;2023-04-09T07:11:28;99474.69;;;10.95;100.00
23446;BME280;11895;48.738;9.320;2023-04-09T07:13:56;99472.09;;;10.92;100.00
23446;BME280;11895;48.738;9.320;2023-04-09T07:16:24;99472.16;;;10.91;100.00
23446;BME280;11895;48.738;9.320;2023-04-09T07:19:17;99463.19;;;11.14;100.00
23446;BME280;11895;48.738;9.320;2023-04-09T07:21:45;99472.25;;;11.35;100.00
23446;BME280;11895;48.738;9.320;2023-04-09T07:24:13;99468.72;;;11.56;100.00
23446;BME280;11895;48.738;9.320;2023-04-09T07:26:41;99469.94;;;11.71;100.00
23446;BME280;11895;48.738;9.320;2023-04-09T07:29:09;99475.81;;;11.58;100.00
23446;BME280;11895;48.738;9.320;2023-04-09T07:31:36;99475.00;;;11.78;100.00
23446;BME280;11895;48.738;9.320;2023-04-09T07:34:04;99484.47;;;11.67;100.00
23446;BME280;11895;48.738;9.320;2023-04-09T07:36:32;99488.03;;;11.91;100.00
23446;BME280;11895;48.738;9.320;2023-04-09T07:39:00;99480.25;;;11.59;100.00
23446;BME280;11895;48.738;9.320;2023-04-09T07:41:28;99487.59;;;12.01;100.00
23446;BME280;11895;48.738;9.320;2023-04-09T07:43:56;99483.06;;;12.02;100.00
23446;BME280;11895;48.738;9.320;2023-04-09T07:46:24;99496.00;;;12.16;100.00
23446;BME280;11895;48.738;9.320;2023-04-09T07:48:52;99494.56;;;12.07;100.00
23446;BME280;11895;48.738;9.320;2023-04-09T07:51:19;99497.16;;;12.08;100.00
23446;BME280;11895;48.738;9.320;2023-04-09T07:53:47;99493.25;;;11.95;100.00
23446;BME280;11895;48.738;9.320;2023-04-09T07:56:15;99491.69;;;12.32;100.00
23446;BME280;11895;48.738;9.320;2023-04-09T07:58:43;99493.97;;;12.21;100.00
23446;BME280;11895;48.738;9.320;2023-04-09T08:01:10;99499.53;;;11.96;100.00
23446;BME280;11895;48.738;9.320;2023-04-09T08:03:38;99500.25;;;12.21;100.00
23446;BME280;11895;48.738;9.320;2023-04-09T08:06:06;99497.38;;;12.46;100.00
23446;BME280;11895;48.738;9.320;2023-04-09T08:08:35;99487.00;;;12.57;100.00
23446;BME280;11895;48.738;9.320;2023-04-09T08:11:03;99495.50;;;12.69;100.00
23446;BME280;11895;48.738;9.320;2023-04-09T08:13:31;99493.31;;;12.56;100.00
23446;BME280;11895;48.738;9.320;2023-04-09T08:16:02;99492.66;;;12.72;100.00
23446;BME280;11895;48.738;9.320;2023-04-09T08:18:30;99497.50;;;12.84;100.00
23446;BME280;11895;48.738;9.320;2023-04-09T08:20:58;99498.19;;;12.89;100.00
23446;BME280;11895;48.738;9.320;2023-04-09T08:23:31;99491.50;;;12.77;100.00
23446;BME280;11895;48.738;9.320;2023-04-09T08:25:58;99491.28;;;13.02;100.00
23446;BME280;11895;48.738;9.320;2023-04-09T08:28:26;99508.25;;;13.06;99.30
23446;BME280;11895;48.738;9.320;2023-04-09T08:30:54;99505.69;;;12.82;100.00
23446;BME280;11895;48.738;9.320;2023-04-09T08:33:22;99500.88;;;12.89;100.00
23446;BME280;11895;48.738;9.320;2023-04-09T08:35:49;99500.47;;;12.98;99.48
23446;BME280;11895;48.738;9.320;2023-04-09T08:38:18;99504.09;;;13.18;99.31
23446;BME280;11895;48.738;9.320;2023-04-09T08:40:46;99506.69;;;13.58;93.60
23446;BME280;11895;48.738;9.320;2023-04-09T08:43:18;99508.63;;;13.56;93.13
23446;BME280;11895;48.738;9.320;2023-04-09T08:45:51;99508.91;;;13.69;95.70
23446;BME280;11895;48.738;9.320;2023-04-09T08:48:21;99509.47;;;13.76;94.72
23446;BME280;11895;48.738;9.320;2023-04-09T08:50:50;99515.13;;;13.52;94.99
23446;BME280;11895;48.738;9.320;2023-04-09T08:53:18;99506.44;;;13.65;92.65
23446;BME280;11895;48.738;9.320;2023-04-09T08:55:48;99517.16;;;13.85;90.08
23446;BME280;11895;48.738;9.320;2023-04-09T08:58:17;99530.69;;;13.08;96.17
23446;BME280;11895;48.738;9.320;2023-04-09T09:00:45;99518.44;;;13.59;95.76
23446;BME280;11895;48.738;9.320;2023-04-09T09:03:12;99522.06;;;13.77;89.77
23446;BME280;11895;48.738;9.320;2023-04-09T09:05:44;99527.91;;;13.68;85.19
23446;BME280;11895;48.738;9.320;2023-04-09T09:08:23;99519.31;;;14.14;86.42
23446;BME280;11895;48.738;9.320;2023-04-09T09:10:52;99532.31;;;13.51;70.31
23446;BME280;11895;48.738;9.320;2023-04-09T09:13:27;99522.66;;;13.83;75.06
23446;BME280;11895;48.738;9.320;2023-04-09T09:16:11;99526.06;;;14.42;70.38
23446;BME280;11895;48.738;9.320;2023-04-09T09:18:41;99536.28;;;14.54;76.73
23446;BME280;11895;48.738;9.320;2023-04-09T09:21:12;99524.00;;;14.64;76.21
23446;BME280;11895;48.738;9.320;2023-04-09T09:23:42;99526.34;;;14.19;80.36
23446;BME280;11895;48.738;9.320;2023-04-09T09:26:16;99524.31;;;14.41;72.79
23446;BME280;11895;48.738;9.320;2023-04-09T09:28:48;99532.97;;;14.30;76.08
23446;BME280;11895;48.738;9.320;2023-04-09T09:31:17;99518.75;;;14.79;72.67
23446;BME280;11895;48.738;9.320;2023-04-09T09:33:46;99527.69;;;14.81;66.27
23446;BME280;11895;48.738;9.320;2023-04-09T09:36:33;99524.19;;;14.79;66.11
23446;BME280;11895;48.738;9.320;2023-04-09T09:39:02;99530.72;;;14.92;67.50
23446;BME280;11895;48.738;9.320;2023-04-09T09:41:33;99530.81;;;14.73;68.07
23446;BME280;11895;48.738;9.320;2023-04-09T09:44:01;99529.13;;;14.88;63.89
23446;BME280;11895;48.738;9.320;2023-04-09T09:46:35;99528.66;;;14.26;66.63
23446;BME280;11895;48.738;9.320;2023-04-09T09:49:05;99531.31;;;14.45;69.74
23446;BME280;11895;48.738;9.320;2023-04-09T09:51:39;99531.63;;;13.07;69.53
23446;BME280;11895;48.738;9.320;2023-04-09T09:54:08;99525.28;;;13.85;66.83
23446;BME280;11895;48.738;9.320;2023-04-09T09:56:41;99525.06;;;14.26;65.76
23446;BME280;11895;48.738;9.320;2023-04-09T09:59:20;99524.09;;;14.09;66.39
23446;BME280;11895;48.738;9.320;2023-04-09T10:02:04;99521.97;;;14.52;60.02
23446;BME280;11895;48.738;9.320;2023-04-09T10:04:34;99520.81;;;14.74;56.29
23446;BME280;11895;48.738;9.320;2023-04-09T10:07:06;99522.66;;;14.90;55.44
23446;BME280;11895;48.738;9.320;2023-04-09T10:09:37;99524.16;;;15.13;51.12
23446;BME280;11895;48.738;9.320;2023-04-09T10:12:09;99509.19;;;15.55;49.65
23446;BME280;11895;48.738;9.320;2023-04-09T10:14:39;99505.81;;;15.67;48.84
23446;BME280;11895;48.738;9.320;2023-04-09T10:17:07;99518.13;;;15.57;49.86
23446;BME280;11895;48.738;9.320;2023-04-09T10:19:41;99517.94;;;15.60;50.12
23446;BME280;11895;48.738;9.320;2023-04-09T10:22:16;99522.03;;;15.52;51.29
23446;BME280;11895;48.738;9.320;2023-04-09T10:24:47;99512.94;;;15.86;51.28
23446;BME280;11895;48.738;9.320;2023-04-09T10:27:15;99520.44;;;15.81;50.95
23446;BME280;11895;48.738;9.320;2023-04-09T10:29:46;99515.44;;;16.05;46.87
23446;BME280;11895;48.738;9.320;2023-04-09T10:32:24;99508.13;;;16.37;47.12
23446;BME280;11895;48.738;9.320;2023-04-09T10:34:58;99513.34;;;15.78;47.00
23446;BME280;11895;48.738;9.320;2023-04-09T10:37:27;99515.41;;;15.57;45.31
23446;BME280;11895;48.738;9.320;2023-04-09T10:39:56;99504.50;;;15.75;46.01
23446;BME280;11895;48.738;9.320;2023-04-09T10:42:31;99512.91;;;15.70;46.97
23446;BME280;11895;48.738;9.320;2023-04-09T10:47:36;99504.75;;;16.17;44.59
23446;BME280;11895;48.738;9.320;2023-04-09T10:50:24;99506.50;;;16.64;43.96
23446;BME280;11895;48.738;9.320;2023-04-09T10:52:55;99502.22;;;15.83;44.23
23446;BME280;11895;48.738;9.320;2023-04-09T10:58:06;99500.53;;;16.12;44.10
23446;BME280;11895;48.738;9.320;2023-04-09T11:00:40;99502.63;;;16.23;44.98
23446;BME280;11895;48.738;9.320;2023-04-09T11:03:28;99494.44;;;15.77;44.50
23446;BME280;11895;48.738;9.320;2023-04-09T11:06:05;99493.66;;;16.66;43.91
23446;BME280;11895;48.738;9.320;2023-04-09T11:08:40;99495.13;;;17.02;41.50
23446;BME280;11895;48.738;9.320;2023-04-09T11:11:14;99487.75;;;17.61;42.25
23446;BME280;11895;48.738;9.320;2023-04-09T11:13:42;99497.03;;;16.86;41.16
23446;BME280;11895;48.738;9.320;2023-04-09T11:16:11;99493.63;;;16.82;40.95
23446;BME280;11895;48.738;9.320;2023-04-09T11:18:49;99482.78;;;17.39;40.19
23446;BME280;11895;48.738;9.320;2023-04-09T11:21:17;99484.47;;;16.53;39.81
23446;BME280;11895;48.738;9.320;2023-04-09T11:23:51;99480.44;;;16.30;40.36
23446;BME280;11895;48.738;9.320;2023-04-09T11:26:46;99475.81;;;16.16;41.14
23446;BME280;11895;48.738;9.320;2023-04-09T11:29:15;99478.53;;;16.16;43.11
23446;BME280;11895;48.738;9.320;2023-04-09T11:31:46;99469.88;;;16.70;39.75
23446;BME280;11895;48.738;9.320;2023-04-09T11:34:18;99472.09;;;16.93;38.07
23446;BME280;11895;48.738;9.320;2023-04-09T11:36:48;99465.97;;;17.04;38.20
23446;BME280;11895;48.738;9.320;2023-04-09T11:39:16;99472.69;;;17.97;37.52
23446;BME280;11895;48.738;9.320;2023-04-09T11:41:44;99475.47;;;17.83;36.82
23446;BME280;11895;48.738;9.320;2023-04-09T11:44:13;99470.22;;;17.65;37.37
23446;BME280;11895;48.738;9.320;2023-04-09T11:46:41;99460.63;;;17.45;37.59
23446;BME280;11895;48.738;9.320;2023-04-09T11:49:09;99469.03;;;17.69;38.18
23446;BME280;11895;48.738;9.320;2023-04-09T11:51:40;99465.09;;;18.02;36.40
23446;BME280;11895;48.738;9.320;2023-04-09T11:54:08;99458.31;;;17.95;36.49
23446;BME280;11895;48.738;9.320;2023-04-09T11:56:38;99470.59;;;18.15;37.21
23446;BME280;11895;48.738;9.320;2023-04-09T11:59:05;99473.94;;;18.33;37.36
23446;BME280;11895;48.738;9.320;2023-04-09T12:01:33;99458.56;;;18.71;36.25
23446;BME280;11895;48.738;9.320;2023-04-09T12:04:01;99465.34;;;19.04;35.29
23446;BME280;11895;48.738;9.320;2023-04-09T12:06:33;99476.06;;;18.82;34.84
23446;BME280;11895;48.738;9.320;2023-04-09T12:09:08;99459.44;;;19.36;34.65
23446;BME280;11895;48.738;9.320;2023-04-09T12:11:42;99461.75;;;20.15;34.21
23446;BME280;11895;48.738;9.320;2023-04-09T12:14:18;99459.00;;;20.63;33.58
23446;BME280;11895;48.738;9.320;2023-04-09T12:16:51;99441.50;;;21.35;31.54
23446;BME280;11895;48.738;9.320;2023-04-09T12:19:23;99454.94;;;21.83;31.14
23446;BME280;11895;48.738;9.320;2023-04-09T12:21:54;99459.38;;;22.06;30.34
23446;BME280;11895;48.738;9.320;2023-04-09T12:24:24;99451.09;;;22.93;29.97
23446;BME280;11895;48.738;9.320;2023-04-09T12:26:52;99446.59;;;23.43;28.76
23446;BME280;11895;48.738;9.320;2023-04-09T12:29:20;99449.31;;;24.14;28.09
23446;BME280;11895;48.738;9.320;2023-04-09T12:31:48;99447.88;;;24.29;27.65
23446;BME280;11895;48.738;9.320;2023-04-09T12:34:16;99449.84;;;25.44;25.95
23446;BME280;11895;48.738;9.320;2023-04-09T12:36:44;99443.19;;;25.36;25.21
23446;BME280;11895;48.738;9.320;2023-04-09T12:39:12;99439.53;;;22.25;27.76
23446;BME280;11895;48.738;9.320;2023-04-09T12:41:40;99435.97;;;24.00;27.38
23446;BME280;11895;48.738;9.320;2023-04-09T12:44:08;99429.34;;;24.51;25.84
23446;BME280;11895;48.738;9.320;2023-04-09T12:46:36;99437.28;;;25.59;23.87
23446;BME280;11895;48.738;9.320;2023-04-09T12:49:04;99426.94;;;23.88;25.86
23446;BME280;11895;48.738;9.320;2023-04-09T12:51:32;99430.47;;;24.19;27.28
23446;BME280;11895;48.738;9.320;2023-04-09T12:54:00;99429.75;;;23.06;26.04
23446;BME280;11895;48.738;9.320;2023-04-09T12:56:30;99418.41;;;23.20;27.07
23446;BME280;11895;48.738;9.320;2023-04-09T12:58:58;99418.22;;;25.75;26.34
23446;BME280;11895;48.738;9.320;2023-04-09T13:01:25;99417.50;;;26.19;23.53
23446;BME280;11895;48.738;9.320;2023-04-09T13:03:53;99411.16;;;27.41;22.89
23446;BME280;11895;48.738;9.320;2023-04-09T13:06:22;99412.06;;;28.43;21.48
23446;BME280;11895;48.738;9.320;2023-04-09T13:08:49;99409.59;;;24.84;23.41
23446;BME280;11895;48.738;9.320;2023-04-09T13:11:17;99407.78;;;23.37;24.52
23446;BME280;11895;48.738;9.320;2023-04-09T13:13:45;99408.78;;;22.84;26.32
23446;BME280;11895;48.738;9.320;2023-04-09T13:16:13;99398.91;;;24.72;24.31
23446;BME280;11895;48.738;9.320;2023-04-09T13:18:40;99400.94;;;24.60;24.86
23446;BME280;11895;48.738;9.320;2023-04-09T13:21:08;99395.38;;;25.83;24.10
23446;BME280;11895;48.738;9.320;2023-04-09T13:23:36;99392.09;;;26.69;22.75
23446;BME280;11895;48.738;9.320;2023-04-09T13:26:04;99397.53;;;27.22;22.30
23446;BME280;11895;48.738;9.320;2023-04-09T13:28:31;99386.81;;;27.01;22.32